sensor_id;sensor_type;location;lat;lon;timestamp;pressure;altitude;pressure_sealevel;temperature;humidity
68994;BME280;56054;50.968;5.816;2023-03-16T06:41:16;100770.81;;;5.46;90.47
68994;BME280;56054;50.968;5.816;2023-03-16T06:44:23;100765.91;;;5.49;91.12
68994;BME280;56054;50.968;5.816;2023-03-16T06:47:36;100759.97;;;5.50;89.92
68994;BME280;56054;50.968;5.816;2023-03-16T06:50:46;100743.75;;;5.51;89.16
68994;BME280;56054;50.968;5.816;2023-03-16T06:53:59;100737.81;;;5.52;89.49
68994;BME280;56054;50.968;5.816;2023-03-16T06:57:12;100753.53;;;5.55;89.65
68994;BME280;56054;50.968;5.816;2023-03-16T07:00:24;100753.78;;;5.58;89.50
68994;BME280;56054;50.968;5.816;2023-03-16T07:03:31;100759.06;;;5.60;90.25
68994;BME280;56054;50.968;5.816;2023-03-16T07:06:48;100763.47;;;5.61;89.81
68994;BME280;56054;50.968;5.816;2023-03-16T07:09:55;100753.53;;;5.66;89.76
68994;BME280;56054;50.968;5.816;2023-03-16T07:13:02;100753.00;;;5.70;89.48
68994;BME280;56054;50.968;5.816;2023-03-16T07:16:09;100751.31;;;5.70;90.04
68994;BME280;56054;50.968;5.816;2023-03-16T07:19:18;100765.38;;;5.74;90.15
68994;BME280;56054;50.968;5.816;2023-03-16T07:22:28;100760.47;;;5.77;90.42
68994;BME280;56054;50.968;5.816;2023-03-16T07:25:36;100755.53;;;5.80;91.15
68994;BME280;56054;50.968;5.816;2023-03-16T07:28:43;100760.69;;;5.80;92.20
68994;BME280;56054;50.968;5.816;2023-03-16T07:31:50;100763.41;;;5.82;92.55
68994;BME280;56054;50.968;5.816;2023-03-16T07:35:05;100766.13;;;5.83;93.93
68994;BME280;56054;50.968;5.816;2023-03-16T07:38:12;100759.28;;;5.84;93.25
68994;BME280;56054;50.968;5.816;2023-03-16T07:41:21;100762.25;;;5.88;93.79
68994;BME280;56054;50.968;5.816;2023-03-16T07:44:41;100754.63;;;5.90;93.01
68994;BME280;56054;50.968;5.816;2023-03-16T07:47:48;100753.72;;;5.89;94.30
68994;BME280;56054;50.968;5.816;2023-03-16T07:51:08;100747.91;;;5.92;94.01
68994;BME280;56054;50.968;5.816;2023-03-16T07:54:19;100746.53;;;5.95;93.71
68994;BME280;56054;50.968;5.816;2023-03-16T07:57:26;100746.91;;;6.00;93.08
68994;BME280;56054;50.968;5.816;2023-03-16T08:00:34;100747.13;;;6.13;93.25
68994;BME280;56054;50.968;5.816;2023-03-16T08:03:41;100741.06;;;6.13;92.40
68994;BME280;56054;50.968;5.816;2023-03-16T08:06:48;100731.22;;;6.19;91.97
68994;BME280;56054;50.968;5.816;2023-03-16T08:09:58;100737.53;;;6.22;90.52
68994;BME280;56054;50.968;5.816;2023-03-16T08:13:32;100733.78;;;6.29;89.36
68994;BME280;56054;50.968;5.816;2023-03-16T08:16:39;100742.50;;;6.41;90.56
68994;BME280;56054;50.968;5.816;2023-03-16T08:19:47;100738.19;;;6.52;89.28
68994;BME280;56054;50.968;5.816;2023-03-16T08:22:55;100733.63;;;6.60;87.74
68994;BME280;56054;50.968;5.816;2023-03-16T08:30:00;100736.50;;;6.75;86.29
68994;BME280;56054;50.968;5.816;2023-03-16T08:33:10;100730.94;;;6.80;85.23
68994;BME280;56054;50.968;5.816;2023-03-16T08:36:18;100738.47;;;6.89;85.01
68994;BME280;56054;50.968;5.816;2023-03-16T08:39:28;100730.28;;;6.95;86.52
68994;BME280;56054;50.968;5.816;2023-03-16T08:42:39;100727.31;;;7.00;84.60
68994;BME280;56054;50.968;5.816;2023-03-16T08:45:47;100736.06;;;7.02;83.77
68994;BME280;56054;50.968;5.816;2023-03-16T08:48:59;100735.78;;;7.10;84.70
68994;BME280;56054;50.968;5.816;2023-03-16T08:52:06;100735.09;;;7.24;82.62
68994;BME280;56054;50.968;5.816;2023-03-16T08:55:14;100729.94;;;7.24;82.95
68994;BME280;56054;50.968;5.816;2023-03-16T08:58:21;100724.59;;;7.33;81.39
68994;BME280;56054;50.968;5.816;2023-03-16T09:01:31;100726.31;;;7.44;81.99
68994;BME280;56054;50.968;5.816;2023-03-16T09:04:38;100716.84;;;7.44;80.53
68994;BME280;56054;50.968;5.816;2023-03-16T09:07:46;100716.06;;;7.45;80.69
68994;BME280;56054;50.968;5.816;2023-03-16T09:11:01;100720.69;;;7.49;80.37
68994;BME280;56054;50.968;5.816;2023-03-16T09:14:09;100719.00;;;7.62;80.17
68994;BME280;56054;50.968;5.816;2023-03-16T09:17:16;100713.38;;;7.67;78.65
68994;BME280;56054;50.968;5.816;2023-03-16T09:20:23;100722.19;;;7.81;79.22
68994;BME280;56054;50.968;5.816;2023-03-16T09:23:30;100712.06;;;7.84;78.35
68994;BME280;56054;50.968;5.816;2023-03-16T09:26:39;100701.50;;;7.93;78.22
68994;BME280;56054;50.968;5.816;2023-03-16T09:29:47;100709.56;;;8.09;77.92
68994;BME280;56054;50.968;5.816;2023-03-16T09:32:54;100696.94;;;8.26;77.10
68994;BME280;56054;50.968;5.816;2023-03-16T09:36:01;100711.09;;;8.54;76.87
68994;BME280;56054;50.968;5.816;2023-03-16T09:39:14;100702.41;;;8.66;75.65
68994;BME280;56054;50.968;5.816;2023-03-16T09:42:42;100698.53;;;8.72;76.32
68994;BME280;56054;50.968;5.816;2023-03-16T09:58:00;100692.03;;;9.16;75.16
68994;BME280;56054;50.968;5.816;2023-03-16T10:01:46;100691.78;;;9.38;71.67
68994;BME280;56054;50.968;5.816;2023-03-16T10:08:23;100698.91;;;9.54;67.63
68994;BME280;56054;50.968;5.816;2023-03-16T10:11:53;100681.13;;;9.60;67.13
68994;BME280;56054;50.968;5.816;2023-03-16T10:15:23;100679.34;;;9.85;67.31
68994;BME280;56054;50.968;5.816;2023-03-16T10:19:33;100677.16;;;10.05;65.49
68994;BME280;56054;50.968;5.816;2023-03-16T10:22:46;100666.34;;;10.12;64.19
68994;BME280;56054;50.968;5.816;2023-03-16T10:25:54;100671.34;;;10.09;63.51
68994;BME280;56054;50.968;5.816;2023-03-16T10:29:05;100673.16;;;10.10;63.55
68994;BME280;56054;50.968;5.816;2023-03-16T10:32:16;100669.25;;;10.30;63.54
68994;BME280;56054;50.968;5.816;2023-03-16T10:35:55;100658.84;;;10.58;63.57
68994;BME280;56054;50.968;5.816;2023-03-16T10:39:02;100645.75;;;10.42;62.44
68994;BME280;56054;50.968;5.816;2023-03-16T10:42:19;100648.69;;;10.61;61.82
68994;BME280;56054;50.968;5.816;2023-03-16T10:45:30;100652.00;;;10.59;61.92
68994;BME280;56054;50.968;5.816;2023-03-16T10:48:41;100654.22;;;10.67;61.83
68994;BME280;56054;50.968;5.816;2023-03-16T10:51:48;100655.38;;;10.58;61.87
68994;BME280;56054;50.968;5.816;2023-03-16T10:55:05;100635.22;;;10.54;62.05
68994;BME280;56054;50.968;5.816;2023-03-16T10:58:25;100636.16;;;10.69;63.55
68994;BME280;56054;50.968;5.816;2023-03-16T11:01:32;100625.56;;;10.66;62.65
68994;BME280;56054;50.968;5.816;2023-03-16T11:04:39;100641.25;;;10.67;61.68
68994;BME280;56054;50.968;5.816;2023-03-16T11:08:00;100641.53;;;10.72;61.84
68994;BME280;56054;50.968;5.816;2023-03-16T11:11:18;100635.91;;;10.79;61.50
68994;BME280;56054;50.968;5.816;2023-03-16T11:14:33;100641.13;;;10.94;61.83
68994;BME280;56054;50.968;5.816;2023-03-16T11:17:45;100643.28;;;11.01;62.19
68994;BME280;56054;50.968;5.816;2023-03-16T11:20:55;100628.56;;;11.02;60.03
68994;BME280;56054;50.968;5.816;2023-03-16T11:24:03;100614.69;;;11.16;61.10
68994;BME280;56054;50.968;5.816;2023-03-16T11:34:30;100608.78;;;11.79;58.38
68994;BME280;56054;50.968;5.816;2023-03-16T11:41:47;100594.81;;;12.09;57.36
68994;BME280;56054;50.968;5.816;2023-03-16T11:48:23;100580.03;;;12.24;55.96
68994;BME280;56054;50.968;5.816;2023-03-16T11:51:58;100571.53;;;12.28;56.37
68994;BME280;56054;50.968;5.816;2023-03-16T11:58:46;100569.63;;;12.24;53.74
68994;BME280;56054;50.968;5.816;2023-03-16T12:15:42;100547.31;;;12.29;53.65
68994;BME280;56054;50.968;5.816;2023-03-16T12:18:58;100534.03;;;12.25;54.39
68994;BME280;56054;50.968;5.816;2023-03-16T12:22:25;100529.56;;;12.22;53.63
68994;BME280;56054;50.968;5.816;2023-03-16T12:25:39;100531.09;;;12.35;52.87
68994;BME280;56054;50.968;5.816;2023-03-16T12:28:54;100534.22;;;12.62;51.96
68994;BME280;56054;50.968;5.816;2023-03-16T12:35:28;100528.66;;;12.72;52.21
68994;BME280;56054;50.968;5.816;2023-03-16T12:42:47;100515.16;;;12.63;50.67
68994;BME280;56054;50.968;5.816;2023-03-16T12:46:10;100508.13;;;12.78;51.79
68994;BME280;56054;50.968;5.816;2023-03-16T12:49:19;100501.72;;;12.90;51.00
68994;BME280;56054;50.968;5.816;2023-03-16T12:52:39;100503.81;;;12.97;50.58
68994;BME280;56054;50.968;5.816;2023-03-16T12:55:48;100491.47;;;13.11;51.03
68994;BME280;56054;50.968;5.816;2023-03-16T12:59:14;100480.53;;;13.00;51.69
68994;BME280;56054;50.968;5.816;2023-03-16T13:02:31;100477.78;;;13.33;52.26
68994;BME280;56054;50.968;5.816;2023-03-16T13:05:50;100463.75;;;13.48;52.16
68994;BME280;56054;50.968;5.816;2023-03-16T13:09:04;100469.88;;;13.49;50.82
68994;BME280;56054;50.968;5.816;2023-03-16T13:12:28;100460.97;;;13.63;50.28
68994;BME280;56054;50.968;5.816;2023-03-16T13:15:36;100467.72;;;13.78;50.23
68994;BME280;56054;50.968;5.816;2023-03-16T13:18:59;100459.19;;;13.82;50.31
68994;BME280;56054;50.968;5.816;2023-03-16T13:22:27;100448.31;;;13.73;49.96
68994;BME280;56054;50.968;5.816;2023-03-16T13:25:40;100451.47;;;14.04;50.77
68994;BME280;56054;50.968;5.816;2023-03-16T13:29:26;100436.31;;;13.96;49.56
68994;BME280;56054;50.968;5.816;2023-03-16T13:32:33;100440.44;;;14.10;49.66
68994;BME280;56054;50.968;5.816;2023-03-16T13:35:44;100429.69;;;14.23;50.63
68994;BME280;56054;50.968;5.816;2023-03-16T13:42:39;100419.34;;;13.86;49.76
68994;BME280;56054;50.968;5.816;2023-03-16T13:45:48;100419.13;;;14.01;51.04
68994;BME280;56054;50.968;5.816;2023-03-16T13:48:58;100391.25;;;14.21;50.58
68994;BME280;56054;50.968;5.816;2023-03-16T13:52:34;100391.75;;;14.33;50.37
68994;BME280;56054;50.968;5.816;2023-03-16T13:55:44;100393.16;;;14.25;50.01
68994;BME280;56054;50.968;5.816;2023-03-16T13:58:58;100390.44;;;14.22;48.54
68994;BME280;56054;50.968;5.816;2023-03-16T14:02:16;100381.44;;;14.36;49.47
68994;BME280;56054;50.968;5.816;2023-03-16T14:05:31;100378.78;;;14.34;48.79
68994;BME280;56054;50.968;5.816;2023-03-16T14:09:03;100381.75;;;14.23;48.55
68994;BME280;56054;50.968;5.816;2023-03-16T14:12:17;100381.00;;;14.25;48.67
68994;BME280;56054;50.968;5.816;2023-03-16T14:15:26;100372.38;;;14.28;48.98
68994;BME280;56054;50.968;5.816;2023-03-16T14:18:36;100356.06;;;14.33;48.27
68994;BME280;56054;50.968;5.816;2023-03-16T14:22:17;100355.66;;;14.44;48.16
68994;BME280;56054;50.968;5.816;2023-03-16T14:25:28;100356.25;;;14.38;47.16
68994;BME280;56054;50.968;5.816;2023-03-16T14:29:05;100357.78;;;14.33;48.01
68994;BME280;56054;50.968;5.816;2023-03-16T14:32:30;100342.31;;;14.38;47.59
68994;BME280;56054;50.968;5.816;2023-03-16T14:35:42;100339.00;;;14.42;47.23
68994;BME280;56054;50.968;5.816;2023-03-16T14:39:09;100335.78;;;14.70;46.77
68994;BME280;56054;50.968;5.816;2023-03-16T14:42:34;100336.38;;;14.63;46.30
68994;BME280;56054;50.968;5.816;2023-03-16T14:46:31;100332.69;;;14.58;46.68
68994;BME280;56054;50.968;5.816;2023-03-16T14:50:11;100322.53;;;14.44;46.13
68994;BME280;56054;50.968;5.816;2023-03-16T14:53:20;100327.78;;;14.44;45.12
68994;BME280;56054;50.968;5.816;2023-03-16T14:56:32;100317.25;;;14.64;46.12
68994;BME280;56054;50.968;5.816;2023-03-16T15:00:08;100311.56;;;14.53;46.72
68994;BME280;56054;50.968;5.816;2023-03-16T15:03:17;100309.31;;;14.61;47.24
68994;BME280;56054;50.968;5.816;2023-03-16T15:06:28;100307.31;;;14.55;46.31
68994;BME280;56054;50.968;5.816;2023-03-16T15:09:43;100307.38;;;14.57;45.62
68994;BME280;56054;50.968;5.816;2023-03-16T15:12:51;100297.03;;;14.60;48.93
68994;BME280;56054;50.968;5.816;2023-03-16T15:16:04;100300.78;;;14.45;50.43
68994;BME280;56054;50.968;5.816;2023-03-16T15:19:50;100294.19;;;14.32;51.73
68994;BME280;56054;50.968;5.816;2023-03-16T15:23:18;100288.75;;;14.28;51.53
68994;BME280;56054;50.968;5.816;2023-03-16T15:26:51;100286.69;;;14.19;47.42
68994;BME280;56054;50.968;5.816;2023-03-16T15:30:30;100288.25;;;14.16;46.05
68994;BME280;56054;50.968;5.816;2023-03-16T15:41:09;100273.91;;;14.06;46.83
68994;BME280;56054;50.968;5.816;2023-03-16T15:44:23;100275.25;;;13.96;48.22
68994;BME280;56054;50.968;5.816;2023-03-16T15:55:43;100264.81;;;13.96;50.88
68994;BME280;56054;50.968;5.816;2023-03-16T15:58:58;100257.75;;;13.94;51.37
68994;BME280;56054;50.968;5.816;2023-03-16T16:02:27;100250.09;;;13.98;50.25
68994;BME280;56054;50.968;5.816;2023-03-16T16:05:44;100243.53;;;14.08;49.44
68994;BME280;56054;50.968;5.816;2023-03-16T16:09:20;100253.34;;;14.13;47.27
68994;BME280;56054;50.968;5.816;2023-03-16T16:12:58;100251.78;;;14.19;47.17
68994;BME280;56054;50.968;5.816;2023-03-16T16:16:09;100245.38;;;14.31;48.18
68994;BME280;56054;50.968;5.816;2023-03-16T16:19:18;100230.28;;;14.24;49.41
68994;BME280;56054;50.968;5.816;2023-03-16T16:22:34;100233.56;;;14.20;49.92
68994;BME280;56054;50.968;5.816;2023-03-16T16:25:41;100237.66;;;14.13;49.71
68994;BME280;56054;50.968;5.816;2023-03-16T16:29:15;100236.66;;;14.10;50.37
68994;BME280;56054;50.968;5.816;2023-03-16T16:37:09;100214.69;;;13.84;52.42
68994;BME280;56054;50.968;5.816;2023-03-16T16:40:23;100229.16;;;13.76;50.98
68994;BME280;56054;50.968;5.816;2023-03-16T16:44:00;100227.41;;;13.76;50.10
68994;BME280;56054;50.968;5.816;2023-03-16T16:47:18;100227.09;;;13.68;49.71
68994;BME280;56054;50.968;5.816;2023-03-16T16:50:27;100230.31;;;13.63;50.68
68994;BME280;56054;50.968;5.816;2023-03-16T16:53:35;100237.69;;;13.52;51.82
68994;BME280;56054;50.968;5.816;2023-03-16T16:56:44;100227.69;;;13.42;52.50
68994;BME280;56054;50.968;5.816;2023-03-16T16:59:55;100236.00;;;13.33;52.56
68994;BME280;56054;50.968;5.816;2023-03-16T17:03:26;100236.06;;;13.35;53.66
68994;BME280;56054;50.968;5.816;2023-03-16T17:06:39;100229.03;;;13.14;53.77
68994;BME280;56054;50.968;5.816;2023-03-16T17:09:46;100224.41;;;13.07;53.88
68994;BME280;56054;50.968;5.816;2023-03-16T17:12:59;100223.81;;;12.95;53.89
68994;BME280;56054;50.968;5.816;2023-03-16T17:16:13;100222.81;;;12.91;53.83
68994;BME280;56054;50.968;5.816;2023-03-16T17:19:25;100226.03;;;12.85;54.46
68994;BME280;56054;50.968;5.816;2023-03-16T17:22:38;100237.53;;;12.71;55.23
68994;BME280;56054;50.968;5.816;2023-03-16T17:25:55;100229.84;;;12.74;55.03
68994;BME280;56054;50.968;5.816;2023-03-16T17:29:17;100236.25;;;12.63;54.45
68994;BME280;56054;50.968;5.816;2023-03-16T17:32:26;100235.84;;;12.54;55.38
68994;BME280;56054;50.968;5.816;2023-03-16T17:35:39;100242.41;;;12.46;55.97
68994;BME280;56054;50.968;5.816;2023-03-16T17:38:48;100244.03;;;12.43;56.15
68994;BME280;56054;50.968;5.816;2023-03-16T17:41:58;100249.25;;;12.26;56.16
68994;BME280;56054;50.968;5.816;2023-03-16T17:45:14;100243.91;;;12.23;56.85
68994;BME280;56054;50.968;5.816;2023-03-16T17:48:28;100240.09;;;12.16;57.03
68994;BME280;56054;50.968;5.816;2023-03-16T17:51:44;100241.31;;;12.05;57.20
68994;BME280;56054;50.968;5.816;2023-03-16T17:54:54;100240.34;;;12.03;58.46
68994;BME280;56054;50.968;5.816;2023-03-16T17:58:20;100229.84;;;11.85;59.65
68994;BME280;56054;50.968;5.816;2023-03-16T18:01:33;100239.56;;;11.87;59.01
68994;BME280;56054;50.968;5.816;2023-03-16T18:04:46;100231.44;;;11.81;58.62
68994;BME280;56054;50.968;5.816;2023-03-16T18:11:38;100237.66;;;11.67;59.09
68994;BME280;56054;50.968;5.816;2023-03-16T18:14:48;100226.59;;;11.71;58.79
68994;BME280;56054;50.968;5.816;2023-03-16T18:17:57;100227.88;;;11.63;58.94
68994;BME280;56054;50.968;5.816;2023-03-16T18:21:04;100239.91;;;11.61;59.27
68994;BME280;56054;50.968;5.816;2023-03-16T18:24:13;100237.91;;;11.55;59.46
68994;BME280;56054;50.968;5.816;2023-03-16T18:27:30;100230.19;;;11.56;59.86
68994;BME280;56054;50.968;5.816;2023-03-16T18:30:38;100231.50;;;11.48;59.30
68994;BME280;56054;50.968;5.816;2023-03-16T18:33:55;100226.97;;;11.44;59.60
68994;BME280;56054;50.968;5.816;2023-03-16T18:37:30;100231.09;;;11.41;59.56
68994;BME280;56054;50.968;5.816;2023-03-16T18:41:19;100234.03;;;11.30;60.40
68994;BME280;56054;50.968;5.816;2023-03-16T18:45:14;100238.22;;;11.27;60.81
68994;BME280;56054;50.968;5.816;2023-03-16T18:48:54;100242.97;;;11.19;60.53
68994;BME280;56054;50.968;5.816;2023-03-16T18:52:18;100237.56;;;11.14;60.00
68994;BME280;56054;50.968;5.816;2023-03-16T18:55:34;100234.88;;;11.13;59.92
68994;BME280;56054;50.968;5.816;2023-03-16T18:58:43;100238.06;;;11.07;60.12
68994;BME280;56054;50.968;5.816;2023-03-16T19:05:36;100242.75;;;10.98;59.86
68994;BME280;56054;50.968;5.816;2023-03-16T19:08:48;100235.28;;;10.88;59.67
68994;BME280;56054;50.968;5.816;2023-03-16T19:11:56;100242.34;;;10.90;60.25
68994;BME280;56054;50.968;5.816;2023-03-16T19:15:18;100225.53;;;10.84;60.53
68994;BME280;56054;50.968;5.816;2023-03-16T19:18:25;100230.22;;;10.75;61.19
68994;BME280;56054;50.968;5.816;2023-03-16T19:21:33;100232.66;;;10.71;61.29
68994;BME280;56054;50.968;5.816;2023-03-16T19:24:49;100227.69;;;10.60;61.61
68994;BME280;56054;50.968;5.816;2023-03-16T19:27:59;100216.00;;;10.52;62.07
68994;BME280;56054;50.968;5.816;2023-03-16T19:31:17;100203.53;;;10.46;61.70
68994;BME280;56054;50.968;5.816;2023-03-16T19:34:28;100195.25;;;10.37;62.08
68994;BME280;56054;50.968;5.816;2023-03-16T19:37:38;100184.31;;;10.27;62.02
68994;BME280;56054;50.968;5.816;2023-03-16T19:40:48;100187.72;;;10.26;62.01
68994;BME280;56054;50.968;5.816;2023-03-16T19:44:05;100187.53;;;10.23;62.13
68994;BME280;56054;50.968;5.816;2023-03-16T19:50:28;100188.00;;;10.31;61.36
68994;BME280;56054;50.968;5.816;2023-03-16T19:53:35;100170.19;;;10.22;61.66
68994;BME280;56054;50.968;5.816;2023-03-16T19:56:42;100167.25;;;10.16;61.40
68994;BME280;56054;50.968;5.816;2023-03-16T19:59:54;100172.38;;;10.15;61.50
68994;BME280;56054;50.968;5.816;2023-03-16T20:03:09;100157.16;;;10.06;62.20
68994;BME280;56054;50.968;5.816;2023-03-16T20:06:20;100154.41;;;10.03;61.96
68994;BME280;56054;50.968;5.816;2023-03-16T20:09:29;100147.19;;;9.97;61.26
68994;BME280;56054;50.968;5.816;2023-03-16T20:12:38;100143.88;;;10.00;61.10
68994;BME280;56054;50.968;5.816;2023-03-16T20:15:46;100130.69;;;9.97;61.39
68994;BME280;56054;50.968;5.816;2023-03-16T20:18:56;100131.66;;;9.99;61.58
68994;BME280;56054;50.968;5.816;2023-03-16T20:22:11;100123.56;;;9.93;61.51
68994;BME280;56054;50.968;5.816;2023-03-16T20:25:23;100139.19;;;9.94;60.31
68994;BME280;56054;50.968;5.816;2023-03-16T20:28:34;100132.88;;;9.89;60.64
68994;BME280;56054;50.968;5.816;2023-03-16T20:31:41;100128.13;;;9.82;60.47
68994;BME280;56054;50.968;5.816;2023-03-16T20:35:26;100117.69;;;9.80;60.86
68994;BME280;56054;50.968;5.816;2023-03-16T20:38:33;100118.75;;;9.84;59.79
68994;BME280;56054;50.968;5.816;2023-03-16T20:41:43;100119.31;;;9.78;60.02
68994;BME280;56054;50.968;5.816;2023-03-16T20:44:50;100109.66;;;9.76;60.43
68994;BME280;56054;50.968;5.816;2023-03-16T20:47:57;100112.88;;;9.72;60.20
68994;BME280;56054;50.968;5.816;2023-03-16T20:51:12;100098.34;;;9.75;60.15
68994;BME280;56054;50.968;5.816;2023-03-16T20:54:19;100101.84;;;9.76;59.84
68994;BME280;56054;50.968;5.816;2023-03-16T20:57:27;100095.75;;;9.75;59.31
68994;BME280;56054;50.968;5.816;2023-03-16T21:00:37;100094.25;;;9.79;58.81
68994;BME280;56054;50.968;5.816;2023-03-16T21:03:45;100087.81;;;9.72;59.46
68994;BME280;56054;50.968;5.816;2023-03-16T21:06:54;100084.69;;;9.78;59.31
68994;BME280;56054;50.968;5.816;2023-03-16T21:10:01;100087.03;;;9.73;59.57
68994;BME280;56054;50.968;5.816;2023-03-16T21:13:18;100086.19;;;9.74;59.01
68994;BME280;56054;50.968;5.816;2023-03-16T21:16:27;100096.94;;;9.80;58.97
68994;BME280;56054;50.968;5.816;2023-03-16T21:19:35;100089.78;;;9.76;59.36
68994;BME280;56054;50.968;5.816;2023-03-16T21:22:41;100088.88;;;9.76;59.25
68994;BME280;56054;50.968;5.816;2023-03-16T21:26:16;100076.19;;;9.80;59.01
68994;BME280;56054;50.968;5.816;2023-03-16T21:29:23;100072.13;;;9.85;58.49
68994;BME280;56054;50.968;5.816;2023-03-16T21:32:31;100082.50;;;9.85;59.02
68994;BME280;56054;50.968;5.816;2023-03-16T21:36:11;100061.66;;;9.84;58.74
68994;BME280;56054;50.968;5.816;2023-03-16T21:39:21;100058.97;;;9.82;59.02
68994;BME280;56054;50.968;5.816;2023-03-16T21:42:54;100064.16;;;9.82;58.89
68994;BME280;56054;50.968;5.816;2023-03-16T21:46:02;100061.41;;;9.79;59.22
68994;BME280;56054;50.968;5.816;2023-03-16T21:49:10;100055.56;;;9.83;58.85
68994;BME280;56054;50.968;5.816;2023-03-16T21:52:27;100057.69;;;9.91;58.66
68994;BME280;56054;50.968;5.816;2023-03-16T21:55:41;100062.00;;;9.90;58.52
68994;BME280;56054;50.968;5.816;2023-03-16T22:03:22;100068.63;;;9.85;59.28
68994;BME280;56054;50.968;5.816;2023-03-16T22:06:38;100074.38;;;9.79;60.02
68994;BME280;56054;50.968;5.816;2023-03-16T22:10:50;100068.50;;;9.67;61.93
68994;BME280;56054;50.968;5.816;2023-03-16T22:13:57;100071.25;;;9.70;61.17
68994;BME280;56054;50.968;5.816;2023-03-16T22:17:39;100064.09;;;9.81;59.54
68994;BME280;56054;50.968;5.816;2023-03-16T22:20:48;100050.22;;;9.80;59.27
68994;BME280;56054;50.968;5.816;2023-03-16T22:24:00;100065.06;;;9.83;59.42
68994;BME280;56054;50.968;5.816;2023-03-16T22:27:33;100061.56;;;9.82;59.79
68994;BME280;56054;50.968;5.816;2023-03-16T22:31:16;100059.22;;;9.87;58.94
68994;BME280;56054;50.968;5.816;2023-03-16T22:34:30;100063.63;;;9.88;59.52
68994;BME280;56054;50.968;5.816;2023-03-16T22:41:18;100051.19;;;9.82;58.98
68994;BME280;56054;50.968;5.816;2023-03-16T22:44:26;100039.66;;;9.77;59.93
68994;BME280;56054;50.968;5.816;2023-03-16T22:47:33;100026.06;;;9.81;59.21
68994;BME280;56054;50.968;5.816;2023-03-16T22:50:40;100032.13;;;9.82;59.01
68994;BME280;56054;50.968;5.816;2023-03-16T22:53:48;100036.44;;;9.81;59.00
68994;BME280;56054;50.968;5.816;2023-03-16T22:56:58;100040.66;;;9.79;59.41
68994;BME280;56054;50.968;5.816;2023-03-16T23:00:06;100039.50;;;9.74;59.56
68994;BME280;56054;50.968;5.816;2023-03-16T23:03:18;100061.88;;;9.72;60.01
68994;BME280;56054;50.968;5.816;2023-03-16T23:06:28;100065.84;;;9.51;62.53
